sensor_id;sensor_type;location;lat;lon;timestamp;temperature;humidity
74511;DHT22;62991;50.040;18.400;2023-03-23T00:02:41;12.80;58.60
74511;DHT22;62991;50.040;18.400;2023-03-23T00:05:44;12.90;58.50
74511;DHT22;62991;50.040;18.400;2023-03-23T00:08:51;12.90;58.50
74511;DHT22;62991;50.040;18.400;2023-03-23T00:11:57;12.80;58.60
74511;DHT22;62991;50.040;18.400;2023-03-23T00:15:08;12.90;58.60
74511;DHT22;62991;50.040;18.400;2023-03-23T00:18:09;12.80;58.60
74511;DHT22;62991;50.040;18.400;2023-03-23T00:21:26;12.60;58.90
74511;DHT22;62991;50.040;18.400;2023-03-23T00:24:34;12.60;59.00
74511;DHT22;62991;50.040;18.400;2023-03-23T00:27:37;12.60;59.00
74511;DHT22;62991;50.040;18.400;2023-03-23T00:30:39;12.60;58.70
74511;DHT22;62991;50.040;18.400;2023-03-23T00:33:39;12.70;58.60
74511;DHT22;62991;50.040;18.400;2023-03-23T00:36:43;12.70;58.60
74511;DHT22;62991;50.040;18.400;2023-03-23T00:39:45;12.80;58.40
74511;DHT22;62991;50.040;18.400;2023-03-23T00:42:46;12.70;58.70
74511;DHT22;62991;50.040;18.400;2023-03-23T00:45:48;12.80;58.50
74511;DHT22;62991;50.040;18.400;2023-03-23T00:48:53;12.60;58.60
74511;DHT22;62991;50.040;18.400;2023-03-23T00:51:56;12.60;58.90
74511;DHT22;62991;50.040;18.400;2023-03-23T00:54:57;12.60;59.00
74511;DHT22;62991;50.040;18.400;2023-03-23T00:57:58;12.70;58.70
74511;DHT22;62991;50.040;18.400;2023-03-23T01:00:58;12.80;58.40
74511;DHT22;62991;50.040;18.400;2023-03-23T01:04:00;12.80;58.20
74511;DHT22;62991;50.040;18.400;2023-03-23T01:07:01;12.80;58.10
74511;DHT22;62991;50.040;18.400;2023-03-23T01:10:03;12.90;57.90
74511;DHT22;62991;50.040;18.400;2023-03-23T01:13:04;12.90;58.00
74511;DHT22;62991;50.040;18.400;2023-03-23T01:16:06;12.90;57.80
74511;DHT22;62991;50.040;18.400;2023-03-23T01:19:07;12.80;58.00
74511;DHT22;62991;50.040;18.400;2023-03-23T01:22:07;12.80;57.90
74511;DHT22;62991;50.040;18.400;2023-03-23T01:25:10;12.80;57.90
74511;DHT22;62991;50.040;18.400;2023-03-23T01:28:11;12.80;57.90
74511;DHT22;62991;50.040;18.400;2023-03-23T01:31:14;12.80;57.90
74511;DHT22;62991;50.040;18.400;2023-03-23T01:34:15;12.80;57.90
74511;DHT22;62991;50.040;18.400;2023-03-23T01:37:16;12.80;57.90
74511;DHT22;62991;50.040;18.400;2023-03-23T01:40:17;12.70;58.20
74511;DHT22;62991;50.040;18.400;2023-03-23T01:43:18;12.80;58.10
74511;DHT22;62991;50.040;18.400;2023-03-23T01:46:18;12.80;58.10
74511;DHT22;62991;50.040;18.400;2023-03-23T01:49:23;12.80;58.10
74511;DHT22;62991;50.040;18.400;2023-03-23T01:52:26;12.90;57.90
74511;DHT22;62991;50.040;18.400;2023-03-23T01:55:29;12.80;57.90
74511;DHT22;62991;50.040;18.400;2023-03-23T01:58:32;12.90;57.50
74511;DHT22;62991;50.040;18.400;2023-03-23T02:01:34;13.00;57.40
74511;DHT22;62991;50.040;18.400;2023-03-23T02:04:39;13.00;57.40
74511;DHT22;62991;50.040;18.400;2023-03-23T02:07:42;13.00;57.10
74511;DHT22;62991;50.040;18.400;2023-03-23T02:10:43;13.00;57.20
74511;DHT22;62991;50.040;18.400;2023-03-23T02:13:45;13.00;57.20
74511;DHT22;62991;50.040;18.400;2023-03-23T02:27:00;12.80;57.70
74511;DHT22;62991;50.040;18.400;2023-03-23T02:36:52;12.70;57.80
74511;DHT22;62991;50.040;18.400;2023-03-23T02:40:00;12.70;57.90
74511;DHT22;62991;50.040;18.400;2023-03-23T02:43:02;12.70;57.80
74511;DHT22;62991;50.040;18.400;2023-03-23T02:46:05;12.60;57.90
74511;DHT22;62991;50.040;18.400;2023-03-23T02:49:08;12.60;58.00
74511;DHT22;62991;50.040;18.400;2023-03-23T02:52:15;12.60;58.30
74511;DHT22;62991;50.040;18.400;2023-03-23T02:55:19;12.60;58.30
74511;DHT22;62991;50.040;18.400;2023-03-23T02:58:23;12.50;58.30
74511;DHT22;62991;50.040;18.400;2023-03-23T03:04:26;12.60;58.20
74511;DHT22;62991;50.040;18.400;2023-03-23T03:07:39;12.50;58.40
74511;DHT22;62991;50.040;18.400;2023-03-23T03:10:53;12.40;58.70
74511;DHT22;62991;50.040;18.400;2023-03-23T03:13:59;12.40;58.90
74511;DHT22;62991;50.040;18.400;2023-03-23T03:17:06;12.30;58.80
74511;DHT22;62991;50.040;18.400;2023-03-23T03:20:10;12.40;58.90
74511;DHT22;62991;50.040;18.400;2023-03-23T03:23:13;12.40;58.80
74511;DHT22;62991;50.040;18.400;2023-03-23T03:26:15;12.40;58.80
74511;DHT22;62991;50.040;18.400;2023-03-23T03:29:20;12.30;59.00
74511;DHT22;62991;50.040;18.400;2023-03-23T03:32:29;12.30;59.00
74511;DHT22;62991;50.040;18.400;2023-03-23T03:35:36;12.20;59.30
74511;DHT22;62991;50.040;18.400;2023-03-23T03:38:46;12.10;59.70
74511;DHT22;62991;50.040;18.400;2023-03-23T03:41:48;12.20;59.40
74511;DHT22;62991;50.040;18.400;2023-03-23T03:44:48;12.20;59.30
74511;DHT22;62991;50.040;18.400;2023-03-23T03:47:49;12.10;59.40
74511;DHT22;62991;50.040;18.400;2023-03-23T03:50:50;12.10;59.50
74511;DHT22;62991;50.040;18.400;2023-03-23T03:53:52;12.10;59.60
74511;DHT22;62991;50.040;18.400;2023-03-23T03:56:53;12.10;59.40
74511;DHT22;62991;50.040;18.400;2023-03-23T03:59:58;12.10;59.50
74511;DHT22;62991;50.040;18.400;2023-03-23T04:02:58;11.90;59.70
74511;DHT22;62991;50.040;18.400;2023-03-23T04:06:00;11.80;60.10
74511;DHT22;62991;50.040;18.400;2023-03-23T04:09:02;11.90;59.80
74511;DHT22;62991;50.040;18.400;2023-03-23T04:12:06;12.00;59.60
74511;DHT22;62991;50.040;18.400;2023-03-23T04:15:07;12.00;59.70
74511;DHT22;62991;50.040;18.400;2023-03-23T04:18:08;11.90;59.60
74511;DHT22;62991;50.040;18.400;2023-03-23T04:21:10;11.80;60.00
74511;DHT22;62991;50.040;18.400;2023-03-23T04:24:10;11.80;59.80
74511;DHT22;62991;50.040;18.400;2023-03-23T04:27:12;11.70;59.90
74511;DHT22;62991;50.040;18.400;2023-03-23T04:30:13;11.70;60.10
74511;DHT22;62991;50.040;18.400;2023-03-23T04:33:14;11.60;60.20
74511;DHT22;62991;50.040;18.400;2023-03-23T04:36:15;11.50;60.20
74511;DHT22;62991;50.040;18.400;2023-03-23T04:39:17;11.30;60.80
74511;DHT22;62991;50.040;18.400;2023-03-23T04:42:18;11.30;60.80
74511;DHT22;62991;50.040;18.400;2023-03-23T04:45:20;11.30;60.80
74511;DHT22;62991;50.040;18.400;2023-03-23T04:48:24;11.30;60.90
74511;DHT22;62991;50.040;18.400;2023-03-23T04:51:30;11.30;60.80
74511;DHT22;62991;50.040;18.400;2023-03-23T04:54:31;11.30;60.70
74511;DHT22;62991;50.040;18.400;2023-03-23T04:57:32;11.30;60.90
74511;DHT22;62991;50.040;18.400;2023-03-23T05:00:34;11.30;60.90
74511;DHT22;62991;50.040;18.400;2023-03-23T05:03:35;11.30;60.90
74511;DHT22;62991;50.040;18.400;2023-03-23T05:06:36;11.20;61.00
74511;DHT22;62991;50.040;18.400;2023-03-23T05:09:37;11.30;60.80
74511;DHT22;62991;50.040;18.400;2023-03-23T05:12:38;11.30;60.80
74511;DHT22;62991;50.040;18.400;2023-03-23T05:15:38;11.30;60.60
74511;DHT22;62991;50.040;18.400;2023-03-23T05:18:39;11.30;60.70
74511;DHT22;62991;50.040;18.400;2023-03-23T05:21:40;11.30;60.80
74511;DHT22;62991;50.040;18.400;2023-03-23T05:24:40;11.30;60.70
74511;DHT22;62991;50.040;18.400;2023-03-23T05:27:42;11.30;60.80
74511;DHT22;62991;50.040;18.400;2023-03-23T05:30:43;11.40;60.50
74511;DHT22;62991;50.040;18.400;2023-03-23T05:33:44;11.40;60.50
74511;DHT22;62991;50.040;18.400;2023-03-23T05:36:46;11.40;60.50
74511;DHT22;62991;50.040;18.400;2023-03-23T05:39:47;11.50;60.40
74511;DHT22;62991;50.040;18.400;2023-03-23T05:42:48;11.50;60.30
74511;DHT22;62991;50.040;18.400;2023-03-23T05:45:49;11.70;59.70
74511;DHT22;62991;50.040;18.400;2023-03-23T05:48:50;11.60;59.90
74511;DHT22;62991;50.040;18.400;2023-03-23T05:51:50;11.70;59.80
74511;DHT22;62991;50.040;18.400;2023-03-23T05:54:52;11.70;59.70
74511;DHT22;62991;50.040;18.400;2023-03-23T05:57:53;11.70;59.90
74511;DHT22;62991;50.040;18.400;2023-03-23T06:00:54;11.70;59.90
74511;DHT22;62991;50.040;18.400;2023-03-23T06:03:55;11.70;59.80
74511;DHT22;62991;50.040;18.400;2023-03-23T06:07:02;11.80;59.40
74511;DHT22;62991;50.040;18.400;2023-03-23T06:10:05;11.80;59.40
74511;DHT22;62991;50.040;18.400;2023-03-23T06:13:07;11.70;59.60
74511;DHT22;62991;50.040;18.400;2023-03-23T06:16:08;11.70;59.80
74511;DHT22;62991;50.040;18.400;2023-03-23T06:19:09;11.70;59.60
74511;DHT22;62991;50.040;18.400;2023-03-23T06:22:09;11.80;59.60
74511;DHT22;62991;50.040;18.400;2023-03-23T06:25:11;11.80;59.50
74511;DHT22;62991;50.040;18.400;2023-03-23T06:28:11;11.80;59.80
74511;DHT22;62991;50.040;18.400;2023-03-23T06:31:12;11.80;59.80
74511;DHT22;62991;50.040;18.400;2023-03-23T06:34:15;11.90;59.50
74511;DHT22;62991;50.040;18.400;2023-03-23T06:37:15;12.00;59.20
74511;DHT22;62991;50.040;18.400;2023-03-23T06:40:16;12.10;59.10
74511;DHT22;62991;50.040;18.400;2023-03-23T06:43:19;12.20;58.70
74511;DHT22;62991;50.040;18.400;2023-03-23T06:46:19;12.20;58.70
74511;DHT22;62991;50.040;18.400;2023-03-23T06:49:21;12.30;60.20
74511;DHT22;62991;50.040;18.400;2023-03-23T06:52:23;12.40;58.40
74511;DHT22;62991;50.040;18.400;2023-03-23T06:55:24;12.40;58.60
74511;DHT22;62991;50.040;18.400;2023-03-23T06:58:25;12.60;58.10
74511;DHT22;62991;50.040;18.400;2023-03-23T07:01:26;12.80;57.70
74511;DHT22;62991;50.040;18.400;2023-03-23T07:04:28;13.00;57.20
74511;DHT22;62991;50.040;18.400;2023-03-23T07:07:29;12.90;57.60
74511;DHT22;62991;50.040;18.400;2023-03-23T07:10:30;12.90;57.30
74511;DHT22;62991;50.040;18.400;2023-03-23T07:13:32;12.90;56.90
74511;DHT22;62991;50.040;18.400;2023-03-23T07:16:32;13.00;56.80
74511;DHT22;62991;50.040;18.400;2023-03-23T07:19:33;13.20;56.90
74511;DHT22;62991;50.040;18.400;2023-03-23T07:22:34;13.30;56.30
74511;DHT22;62991;50.040;18.400;2023-03-23T07:25:35;13.30;55.80
74511;DHT22;62991;50.040;18.400;2023-03-23T07:28:36;13.40;56.40
74511;DHT22;62991;50.040;18.400;2023-03-23T07:31:37;13.50;56.00
74511;DHT22;62991;50.040;18.400;2023-03-23T07:34:38;13.60;55.70
74511;DHT22;62991;50.040;18.400;2023-03-23T07:37:39;13.60;56.00
74511;DHT22;62991;50.040;18.400;2023-03-23T07:40:40;13.90;56.00
74511;DHT22;62991;50.040;18.400;2023-03-23T07:43:41;13.90;56.50
74511;DHT22;62991;50.040;18.400;2023-03-23T07:46:42;13.80;56.00
74511;DHT22;62991;50.040;18.400;2023-03-23T07:49:43;14.00;55.60
74511;DHT22;62991;50.040;18.400;2023-03-23T07:52:44;14.20;54.80
74511;DHT22;62991;50.040;18.400;2023-03-23T07:55:45;14.30;54.50
74511;DHT22;62991;50.040;18.400;2023-03-23T07:58:47;14.30;53.80
74511;DHT22;62991;50.040;18.400;2023-03-23T08:01:47;14.60;52.90
74511;DHT22;62991;50.040;18.400;2023-03-23T08:04:48;14.70;52.40
74511;DHT22;62991;50.040;18.400;2023-03-23T08:07:49;14.80;52.20
74511;DHT22;62991;50.040;18.400;2023-03-23T08:10:50;14.80;52.10
74511;DHT22;62991;50.040;18.400;2023-03-23T08:13:51;14.80;51.70
74511;DHT22;62991;50.040;18.400;2023-03-23T08:16:52;15.00;50.80
74511;DHT22;62991;50.040;18.400;2023-03-23T08:19:53;15.10;50.80
74511;DHT22;62991;50.040;18.400;2023-03-23T08:22:55;15.30;50.80
74511;DHT22;62991;50.040;18.400;2023-03-23T08:25:57;15.40;51.80
74511;DHT22;62991;50.040;18.400;2023-03-23T08:28:58;15.40;52.00
74511;DHT22;62991;50.040;18.400;2023-03-23T08:31:58;15.40;51.10
74511;DHT22;62991;50.040;18.400;2023-03-23T08:34:59;15.40;50.90
74511;DHT22;62991;50.040;18.400;2023-03-23T08:38:00;15.50;51.50
74511;DHT22;62991;50.040;18.400;2023-03-23T08:41:04;15.70;51.60
74511;DHT22;62991;50.040;18.400;2023-03-23T08:44:04;15.90;50.80
74511;DHT22;62991;50.040;18.400;2023-03-23T08:47:05;15.90;50.30
74511;DHT22;62991;50.040;18.400;2023-03-23T08:50:09;16.00;49.10
74511;DHT22;62991;50.040;18.400;2023-03-23T08:53:13;16.10;49.60
74511;DHT22;62991;50.040;18.400;2023-03-23T08:56:14;16.00;49.30
74511;DHT22;62991;50.040;18.400;2023-03-23T08:59:14;16.00;50.00
74511;DHT22;62991;50.040;18.400;2023-03-23T09:02:15;15.90;49.40
74511;DHT22;62991;50.040;18.400;2023-03-23T09:05:18;15.90;50.00
74511;DHT22;62991;50.040;18.400;2023-03-23T09:08:19;15.80;49.60
74511;DHT22;62991;50.040;18.400;2023-03-23T09:11:20;15.70;49.30
74511;DHT22;62991;50.040;18.400;2023-03-23T09:14:21;15.90;50.00
74511;DHT22;62991;50.040;18.400;2023-03-23T09:17:22;16.00;50.40
74511;DHT22;62991;50.040;18.400;2023-03-23T09:20:25;16.10;50.30
74511;DHT22;62991;50.040;18.400;2023-03-23T09:23:27;16.40;49.00
74511;DHT22;62991;50.040;18.400;2023-03-23T09:26:28;16.60;50.30
74511;DHT22;62991;50.040;18.400;2023-03-23T09:29:29;16.70;48.40
74511;DHT22;62991;50.040;18.400;2023-03-23T09:32:31;16.90;47.30
74511;DHT22;62991;50.040;18.400;2023-03-23T09:35:34;17.00;46.40
74511;DHT22;62991;50.040;18.400;2023-03-23T09:38:35;16.90;47.40
74511;DHT22;62991;50.040;18.400;2023-03-23T09:52:09;16.90;46.90
74511;DHT22;62991;50.040;18.400;2023-03-23T09:55:16;17.10;46.80
74511;DHT22;62991;50.040;18.400;2023-03-23T10:01:47;17.30;45.80
74511;DHT22;62991;50.040;18.400;2023-03-23T10:04:52;17.40;46.50
74511;DHT22;62991;50.040;18.400;2023-03-23T10:07:54;17.60;45.80
74511;DHT22;62991;50.040;18.400;2023-03-23T10:14:24;17.70;45.20
74511;DHT22;62991;50.040;18.400;2023-03-23T10:17:29;17.30;46.10
74511;DHT22;62991;50.040;18.400;2023-03-23T10:20:54;17.20;46.20
74511;DHT22;62991;50.040;18.400;2023-03-23T10:24:00;17.20;45.60
74511;DHT22;62991;50.040;18.400;2023-03-23T10:27:19;17.00;46.00
74511;DHT22;62991;50.040;18.400;2023-03-23T10:30:45;16.80;46.80
74511;DHT22;62991;50.040;18.400;2023-03-23T10:33:46;16.50;47.20
74511;DHT22;62991;50.040;18.400;2023-03-23T10:37:02;16.50;47.00
74511;DHT22;62991;50.040;18.400;2023-03-23T10:40:11;16.40;47.50
74511;DHT22;62991;50.040;18.400;2023-03-23T10:43:15;16.30;47.80
74511;DHT22;62991;50.040;18.400;2023-03-23T10:52:36;16.60;47.20
74511;DHT22;62991;50.040;18.400;2023-03-23T10:55:40;16.70;46.60
74511;DHT22;62991;50.040;18.400;2023-03-23T10:58:41;16.70;47.00
74511;DHT22;62991;50.040;18.400;2023-03-23T11:01:44;16.90;47.10
74511;DHT22;62991;50.040;18.400;2023-03-23T11:04:58;16.90;47.00
74511;DHT22;62991;50.040;18.400;2023-03-23T11:08:00;17.00;46.90
74511;DHT22;62991;50.040;18.400;2023-03-23T11:11:14;17.00;47.10
74511;DHT22;62991;50.040;18.400;2023-03-23T11:14:19;17.10;47.40
74511;DHT22;62991;50.040;18.400;2023-03-23T11:17:23;17.20;46.70
74511;DHT22;62991;50.040;18.400;2023-03-23T11:20:26;17.10;46.90
74511;DHT22;62991;50.040;18.400;2023-03-23T11:23:30;16.90;47.30
74511;DHT22;62991;50.040;18.400;2023-03-23T11:26:33;16.90;47.30
74511;DHT22;62991;50.040;18.400;2023-03-23T11:29:36;17.00;47.60
74511;DHT22;62991;50.040;18.400;2023-03-23T11:32:44;17.00;47.00
74511;DHT22;62991;50.040;18.400;2023-03-23T11:35:45;17.00;47.30
74511;DHT22;62991;50.040;18.400;2023-03-23T11:38:47;17.10;47.20
74511;DHT22;62991;50.040;18.400;2023-03-23T11:41:47;17.10;46.30
74511;DHT22;62991;50.040;18.400;2023-03-23T11:44:48;17.00;46.70
74511;DHT22;62991;50.040;18.400;2023-03-23T11:51:15;17.20;47.00
74511;DHT22;62991;50.040;18.400;2023-03-23T11:54:36;17.20;46.60
74511;DHT22;62991;50.040;18.400;2023-03-23T11:57:38;17.20;46.20
74511;DHT22;62991;50.040;18.400;2023-03-23T12:00:49;17.30;46.40
74511;DHT22;62991;50.040;18.400;2023-03-23T12:10:42;17.40;46.10
74511;DHT22;62991;50.040;18.400;2023-03-23T12:14:16;17.40;45.40
74511;DHT22;62991;50.040;18.400;2023-03-23T12:17:23;17.60;45.30
74511;DHT22;62991;50.040;18.400;2023-03-23T12:24:03;18.20;45.20
74511;DHT22;62991;50.040;18.400;2023-03-23T12:30:39;18.60;43.90
74511;DHT22;62991;50.040;18.400;2023-03-23T13:01:10;18.80;43.50
74511;DHT22;62991;50.040;18.400;2023-03-23T13:07:23;20.00;41.60
74511;DHT22;62991;50.040;18.400;2023-03-23T13:10:35;20.20;41.00
74511;DHT22;62991;50.040;18.400;2023-03-23T13:13:50;20.40;41.10
74511;DHT22;62991;50.040;18.400;2023-03-23T13:23:40;19.50;42.90
74511;DHT22;62991;50.040;18.400;2023-03-23T13:26:43;19.30;42.80
74511;DHT22;62991;50.040;18.400;2023-03-23T13:29:45;19.20;42.70
74511;DHT22;62991;50.040;18.400;2023-03-23T13:32:48;19.20;43.00
74511;DHT22;62991;50.040;18.400;2023-03-23T13:35:50;19.30;42.80
74511;DHT22;62991;50.040;18.400;2023-03-23T13:38:51;19.40;42.30
74511;DHT22;62991;50.040;18.400;2023-03-23T13:42:48;19.50;42.20
74511;DHT22;62991;50.040;18.400;2023-03-23T13:45:46;19.40;42.20
74511;DHT22;62991;50.040;18.400;2023-03-23T13:49:23;19.60;42.60
74511;DHT22;62991;50.040;18.400;2023-03-23T13:55:49;19.60;42.40
74511;DHT22;62991;50.040;18.400;2023-03-23T13:58:53;19.90;41.80
74511;DHT22;62991;50.040;18.400;2023-03-23T14:02:39;20.00;41.60
74511;DHT22;62991;50.040;18.400;2023-03-23T14:08:47;19.60;42.00
74511;DHT22;62991;50.040;18.400;2023-03-23T14:12:03;19.50;42.10
74511;DHT22;62991;50.040;18.400;2023-03-23T14:15:12;19.40;41.90
74511;DHT22;62991;50.040;18.400;2023-03-23T14:18:15;19.30;42.10
74511;DHT22;62991;50.040;18.400;2023-03-23T14:21:21;19.30;43.30
74511;DHT22;62991;50.040;18.400;2023-03-23T14:24:31;19.30;42.40
74511;DHT22;62991;50.040;18.400;2023-03-23T14:27:32;19.20;42.50
74511;DHT22;62991;50.040;18.400;2023-03-23T14:30:36;19.10;43.10
74511;DHT22;62991;50.040;18.400;2023-03-23T14:33:37;19.10;42.90
74511;DHT22;62991;50.040;18.400;2023-03-23T14:36:39;19.00;43.00
74511;DHT22;62991;50.040;18.400;2023-03-23T14:39:45;19.00;43.00
74511;DHT22;62991;50.040;18.400;2023-03-23T14:42:47;19.00;43.40
74511;DHT22;62991;50.040;18.400;2023-03-23T14:45:52;19.00;43.00
74511;DHT22;62991;50.040;18.400;2023-03-23T14:48:53;19.00;43.00
74511;DHT22;62991;50.040;18.400;2023-03-23T14:51:55;18.90;43.00
74511;DHT22;62991;50.040;18.400;2023-03-23T14:55:18;18.90;42.80
74511;DHT22;62991;50.040;18.400;2023-03-23T14:58:22;18.90;42.80
74511;DHT22;62991;50.040;18.400;2023-03-23T15:01:27;18.80;42.90
74511;DHT22;62991;50.040;18.400;2023-03-23T15:04:28;18.90;42.80
74511;DHT22;62991;50.040;18.400;2023-03-23T15:07:33;18.80;43.00
74511;DHT22;62991;50.040;18.400;2023-03-23T15:10:34;18.70;42.90
74511;DHT22;62991;50.040;18.400;2023-03-23T15:13:36;18.70;43.20
74511;DHT22;62991;50.040;18.400;2023-03-23T15:16:37;18.80;42.70
74511;DHT22;62991;50.040;18.400;2023-03-23T15:19:42;18.80;43.00
74511;DHT22;62991;50.040;18.400;2023-03-23T15:22:47;18.90;43.50
74511;DHT22;62991;50.040;18.400;2023-03-23T15:25:51;18.80;43.20
74511;DHT22;62991;50.040;18.400;2023-03-23T15:32:10;18.40;43.90
74511;DHT22;62991;50.040;18.400;2023-03-23T15:35:17;18.40;44.00
74511;DHT22;62991;50.040;18.400;2023-03-23T15:41:26;18.20;43.90
74511;DHT22;62991;50.040;18.400;2023-03-23T15:44:33;18.30;44.00
74511;DHT22;62991;50.040;18.400;2023-03-23T15:50:46;18.40;43.90
74511;DHT22;62991;50.040;18.400;2023-03-23T15:53:50;18.30;44.00
74511;DHT22;62991;50.040;18.400;2023-03-23T15:56:51;18.30;44.00
74511;DHT22;62991;50.040;18.400;2023-03-23T15:59:51;18.40;43.70
74511;DHT22;62991;50.040;18.400;2023-03-23T16:02:59;18.40;43.90
74511;DHT22;62991;50.040;18.400;2023-03-23T16:06:00;18.50;43.70
74511;DHT22;62991;50.040;18.400;2023-03-23T16:09:04;18.50;43.70
74511;DHT22;62991;50.040;18.400;2023-03-23T16:12:05;18.40;43.80
74511;DHT22;62991;50.040;18.400;2023-03-23T16:15:06;18.40;43.70
74511;DHT22;62991;50.040;18.400;2023-03-23T16:18:20;18.40;43.90
74511;DHT22;62991;50.040;18.400;2023-03-23T16:21:21;18.30;44.10
74511;DHT22;62991;50.040;18.400;2023-03-23T16:24:22;18.40;44.10
74511;DHT22;62991;50.040;18.400;2023-03-23T16:27:22;18.40;43.90
74511;DHT22;62991;50.040;18.400;2023-03-23T16:30:25;18.40;44.00
74511;DHT22;62991;50.040;18.400;2023-03-23T16:33:26;18.30;44.10
74511;DHT22;62991;50.040;18.400;2023-03-23T16:36:27;18.20;44.50
74511;DHT22;62991;50.040;18.400;2023-03-23T16:39:27;18.20;44.60
74511;DHT22;62991;50.040;18.400;2023-03-23T16:42:28;18.10;44.50
74511;DHT22;62991;50.040;18.400;2023-03-23T16:45:29;18.10;44.80
74511;DHT22;62991;50.040;18.400;2023-03-23T16:48:29;18.20;44.50
74511;DHT22;62991;50.040;18.400;2023-03-23T16:51:30;18.10;44.60
74511;DHT22;62991;50.040;18.400;2023-03-23T16:54:31;18.00;44.80
74511;DHT22;62991;50.040;18.400;2023-03-23T16:57:33;17.90;44.90
74511;DHT22;62991;50.040;18.400;2023-03-23T17:00:35;17.90;45.00
74511;DHT22;62991;50.040;18.400;2023-03-23T17:03:38;17.90;44.80
74511;DHT22;62991;50.040;18.400;2023-03-23T17:06:39;17.90;45.00
74511;DHT22;62991;50.040;18.400;2023-03-23T17:09:39;17.80;44.90
74511;DHT22;62991;50.040;18.400;2023-03-23T17:12:40;17.80;45.10
74511;DHT22;62991;50.040;18.400;2023-03-23T17:15:42;17.80;45.40
74511;DHT22;62991;50.040;18.400;2023-03-23T17:18:43;17.80;45.60
74511;DHT22;62991;50.040;18.400;2023-03-23T17:21:44;17.70;45.70
74511;DHT22;62991;50.040;18.400;2023-03-23T17:24:44;17.70;46.30
74511;DHT22;62991;50.040;18.400;2023-03-23T17:27:47;17.60;46.20
74511;DHT22;62991;50.040;18.400;2023-03-23T17:30:48;17.60;46.90
74511;DHT22;62991;50.040;18.400;2023-03-23T17:33:50;17.60;46.90
74511;DHT22;62991;50.040;18.400;2023-03-23T17:36:52;17.40;47.30
74511;DHT22;62991;50.040;18.400;2023-03-23T17:39:52;17.50;47.00
74511;DHT22;62991;50.040;18.400;2023-03-23T17:42:53;17.40;47.80
74511;DHT22;62991;50.040;18.400;2023-03-23T17:45:54;17.50;47.60
74511;DHT22;62991;50.040;18.400;2023-03-23T17:48:54;17.60;47.80
74511;DHT22;62991;50.040;18.400;2023-03-23T17:51:56;17.70;47.40
74511;DHT22;62991;50.040;18.400;2023-03-23T17:54:57;17.60;48.10
74511;DHT22;62991;50.040;18.400;2023-03-23T17:57:58;17.50;48.20
74511;DHT22;62991;50.040;18.400;2023-03-23T18:00:58;17.50;48.40
74511;DHT22;62991;50.040;18.400;2023-03-23T18:04:00;17.50;48.40
74511;DHT22;62991;50.040;18.400;2023-03-23T18:07:01;17.30;49.10
74511;DHT22;62991;50.040;18.400;2023-03-23T18:10:02;17.20;49.40
74511;DHT22;62991;50.040;18.400;2023-03-23T18:13:04;17.40;49.30
74511;DHT22;62991;50.040;18.400;2023-03-23T18:16:06;17.50;49.40
74511;DHT22;62991;50.040;18.400;2023-03-23T18:19:06;17.50;49.40
74511;DHT22;62991;50.040;18.400;2023-03-23T18:22:07;17.50;49.80
74511;DHT22;62991;50.040;18.400;2023-03-23T18:25:08;17.50;49.80
74511;DHT22;62991;50.040;18.400;2023-03-23T18:28:09;17.40;49.60
74511;DHT22;62991;50.040;18.400;2023-03-23T18:31:13;17.50;49.10
74511;DHT22;62991;50.040;18.400;2023-03-23T18:34:14;17.60;48.50
74511;DHT22;62991;50.040;18.400;2023-03-23T18:37:15;17.50;49.10
74511;DHT22;62991;50.040;18.400;2023-03-23T18:40:16;17.40;48.60
74511;DHT22;62991;50.040;18.400;2023-03-23T18:43:19;17.30;48.50
74511;DHT22;62991;50.040;18.400;2023-03-23T18:46:20;17.20;48.10
74511;DHT22;62991;50.040;18.400;2023-03-23T18:49:21;17.10;47.90
74511;DHT22;62991;50.040;18.400;2023-03-23T18:52:22;17.00;48.20
74511;DHT22;62991;50.040;18.400;2023-03-23T18:55:25;17.00;48.20
74511;DHT22;62991;50.040;18.400;2023-03-23T18:58:26;16.90;48.10
74511;DHT22;62991;50.040;18.400;2023-03-23T19:01:27;16.90;48.20
74511;DHT22;62991;50.040;18.400;2023-03-23T19:04:28;16.90;48.30
74511;DHT22;62991;50.040;18.400;2023-03-23T19:07:31;17.00;47.90
74511;DHT22;62991;50.040;18.400;2023-03-23T19:10:39;17.00;48.00
74511;DHT22;62991;50.040;18.400;2023-03-23T19:13:40;17.00;48.40
74511;DHT22;62991;50.040;18.400;2023-03-23T19:16:41;16.90;48.30
74511;DHT22;62991;50.040;18.400;2023-03-23T19:19:42;16.90;48.80
74511;DHT22;62991;50.040;18.400;2023-03-23T19:22:44;16.80;48.80
74511;DHT22;62991;50.040;18.400;2023-03-23T19:25:45;16.80;48.50
74511;DHT22;62991;50.040;18.400;2023-03-23T19:28:45;16.70;48.60
74511;DHT22;62991;50.040;18.400;2023-03-23T19:31:46;16.80;48.70
74511;DHT22;62991;50.040;18.400;2023-03-23T19:34:47;16.80;48.60
74511;DHT22;62991;50.040;18.400;2023-03-23T19:37:48;16.80;48.70
74511;DHT22;62991;50.040;18.400;2023-03-23T19:40:56;16.90;48.20
74511;DHT22;62991;50.040;18.400;2023-03-23T19:43:58;16.80;48.60
74511;DHT22;62991;50.040;18.400;2023-03-23T19:46:59;16.80;48.20
74511;DHT22;62991;50.040;18.400;2023-03-23T19:50:00;16.80;48.50
74511;DHT22;62991;50.040;18.400;2023-03-23T19:53:01;16.90;47.90
74511;DHT22;62991;50.040;18.400;2023-03-23T19:56:02;16.90;47.90
74511;DHT22;62991;50.040;18.400;2023-03-23T19:59:03;16.90;47.80
74511;DHT22;62991;50.040;18.400;2023-03-23T20:02:04;16.90;47.90
74511;DHT22;62991;50.040;18.400;2023-03-23T20:05:05;16.90;47.80
74511;DHT22;62991;50.040;18.400;2023-03-23T20:08:06;17.00;47.80
74511;DHT22;62991;50.040;18.400;2023-03-23T20:11:14;17.00;47.80
74511;DHT22;62991;50.040;18.400;2023-03-23T20:14:16;17.00;47.80
74511;DHT22;62991;50.040;18.400;2023-03-23T20:17:18;17.10;47.60
74511;DHT22;62991;50.040;18.400;2023-03-23T20:20:19;17.10;47.70
74511;DHT22;62991;50.040;18.400;2023-03-23T20:23:20;17.00;47.80
74511;DHT22;62991;50.040;18.400;2023-03-23T20:26:24;17.00;47.90
74511;DHT22;62991;50.040;18.400;2023-03-23T20:29:25;17.00;47.90
74511;DHT22;62991;50.040;18.400;2023-03-23T20:32:29;17.10;47.80
74511;DHT22;62991;50.040;18.400;2023-03-23T20:35:32;17.00;48.10
74511;DHT22;62991;50.040;18.400;2023-03-23T20:38:33;17.00;48.30
74511;DHT22;62991;50.040;18.400;2023-03-23T20:41:35;16.90;48.30
74511;DHT22;62991;50.040;18.400;2023-03-23T20:44:36;16.90;48.50
74511;DHT22;62991;50.040;18.400;2023-03-23T20:47:39;16.70;48.90
74511;DHT22;62991;50.040;18.400;2023-03-23T20:50:40;16.70;48.80
74511;DHT22;62991;50.040;18.400;2023-03-23T20:53:40;16.70;48.80